Time;durP1;ratioP1;P1;durP2;ratioP2;P2;SDS_P1;SDS_P2;PMS_P1;PMS_P2;Temp;Humidity;BMP_temperature;BMP_pressure;BME280_temperature;BME280_humidity;BME280_pressure;Samples;Min_cycle;Max_cycle;Signal;HPM_P1;HPM_P2
2023/12/07 00:00:40;;;;;;;19.27;12.50;;;1.50;99.90;;;;;;4909588;29;20178;-29
2023/12/07 00:03:08;;;;;;;21.30;12.60;;;1.50;99.90;;;;;;4911536;28;20207;-29
2023/12/07 00:05:34;;;;;;;21.07;12.93;;;1.50;99.90;;;;;;4941789;29;20208;-28
2023/12/07 00:08:00;;;;;;;18.60;12.63;;;1.40;99.90;;;;;;4941668;29;20638;-28
2023/12/07 00:10:25;;;;;;;20.93;12.47;;;1.40;99.90;;;;;;4939754;29;20324;-28
2023/12/07 00:12:51;;;;;;;16.83;11.13;;;1.40;99.90;;;;;;4925877;29;20185;-29
2023/12/07 00:15:17;;;;;;;16.97;11.50;;;1.40;99.90;;;;;;4939101;29;20209;-29
2023/12/07 00:17:43;;;;;;;19.53;13.47;;;1.40;99.90;;;;;;4936295;29;20283;-29
2023/12/07 00:20:09;;;;;;;22.83;15.30;;;1.40;99.90;;;;;;4911125;29;20192;-28
2023/12/07 00:22:35;;;;;;;21.50;13.90;;;1.50;99.90;;;;;;4922802;29;20225;-29
2023/12/07 00:25:02;;;;;;;18.90;12.57;;;1.50;99.90;;;;;;4924969;29;20235;-28
2023/12/07 00:27:28;;;;;;;16.20;11.90;;;1.50;99.90;;;;;;4925156;29;20654;-28
2023/12/07 00:29:53;;;;;;;16.60;11.33;;;1.50;99.90;;;;;;4941602;29;20188;-28
2023/12/07 00:32:19;;;;;;;16.93;11.47;;;1.50;99.90;;;;;;4941451;29;20284;-29
2023/12/07 00:34:45;;;;;;;16.93;10.87;;;1.50;99.90;;;;;;4938033;29;20213;-28
2023/12/07 00:37:11;;;;;;;16.60;11.57;;;1.50;99.90;;;;;;4936570;29;20189;-28
2023/12/07 00:39:37;;;;;;;17.33;11.50;;;1.50;99.90;;;;;;4923075;29;20182;-28
2023/12/07 00:42:03;;;;;;;17.27;12.23;;;1.50;99.90;;;;;;4937882;29;20679;-29
2023/12/07 00:44:29;;;;;;;17.87;11.90;;;1.50;99.90;;;;;;4935729;29;20263;-29
2023/12/07 00:46:54;;;;;;;16.30;11.37;;;1.50;99.90;;;;;;4940182;28;20271;-28
2023/12/07 00:49:20;;;;;;;18.47;12.77;;;1.50;99.90;;;;;;4938524;29;20182;-28
2023/12/07 00:51:46;;;;;;;16.53;11.60;;;1.50;99.90;;;;;;4921082;29;20702;-30
2023/12/07 00:54:13;;;;;;;16.33;11.23;;;1.60;99.90;;;;;;4906556;29;20194;-29
2023/12/07 00:56:39;;;;;;;16.77;11.07;;;1.60;99.90;;;;;;4914547;29;20256;-29
2023/12/07 00:59:05;;;;;;;18.57;12.27;;;1.70;99.90;;;;;;4918894;29;20188;-29
2023/12/07 01:01:30;;;;;;;16.07;11.50;;;1.70;99.90;;;;;;4921330;29;20189;-29
2023/12/07 01:03:56;;;;;;;19.23;12.60;;;1.70;99.90;;;;;;4920712;29;20223;-29
2023/12/07 01:06:22;;;;;;;16.87;11.57;;;1.70;99.90;;;;;;4925315;29;20248;-29
2023/12/07 01:08:48;;;;;;;15.23;10.70;;;1.70;99.90;;;;;;4915075;29;20193;-29
2023/12/07 01:11:14;;;;;;;16.93;11.77;;;1.70;99.90;;;;;;4923193;29;20182;-29
2023/12/07 01:13:39;;;;;;;17.70;12.00;;;1.80;99.90;;;;;;4950280;28;20245;-29
2023/12/07 01:16:05;;;;;;;18.33;11.87;;;1.80;99.90;;;;;;4945906;29;20217;-29
2023/12/07 01:18:32;;;;;;;15.03;11.17;;;1.80;99.90;;;;;;4917399;29;20193;-29
2023/12/07 01:20:58;;;;;;;19.50;11.50;;;1.80;99.90;;;;;;4920296;29;20182;-30
2023/12/07 01:23:24;;;;;;;16.10;10.83;;;1.80;99.90;;;;;;4925099;29;20256;-29
2023/12/07 01:25:50;;;;;;;16.07;10.43;;;1.70;99.90;;;;;;4922195;29;20193;-29
2023/12/07 01:28:16;;;;;;;16.93;11.00;;;1.80;99.90;;;;;;4922032;29;20186;-29
2023/12/07 01:30:41;;;;;;;16.73;10.90;;;1.80;99.90;;;;;;4935212;29;20249;-29
2023/12/07 01:33:07;;;;;;;15.20;10.60;;;1.80;99.90;;;;;;4948767;28;20188;-29
2023/12/07 01:35:33;;;;;;;15.77;11.27;;;1.80;99.90;;;;;;4937286;29;20205;-29
2023/12/07 01:37:59;;;;;;;17.40;10.77;;;1.80;99.90;;;;;;4935680;29;20177;-29
2023/12/07 01:40:25;;;;;;;12.97;10.07;;;1.70;99.90;;;;;;4914783;29;20190;-29
2023/12/07 01:42:54;;;;;;;11.93;9.30;;;1.70;99.90;;;;;;4927953;29;20330;-29
2023/12/07 01:45:20;;;;;;;14.70;10.23;;;1.70;99.90;;;;;;4917594;29;20241;-29
2023/12/07 01:47:48;;;;;;;14.77;10.03;;;1.70;99.90;;;;;;4937358;29;20189;-29
2023/12/07 01:50:15;;;;;;;15.50;9.63;;;1.60;99.90;;;;;;4930981;28;20184;-30
2023/12/07 01:52:45;;;;;;;12.70;9.83;;;1.60;99.90;;;;;;4940347;29;20220;-29
2023/12/07 01:55:12;;;;;;;13.73;9.27;;;1.60;99.90;;;;;;4926962;28;20209;-29
2023/12/07 01:57:38;;;;;;;13.40;9.77;;;1.60;99.90;;;;;;4923511;29;20181;-29
2023/12/07 02:00:05;;;;;;;13.80;9.63;;;1.60;99.90;;;;;;4917670;29;20244;-29
2023/12/07 02:02:32;;;;;;;14.37;9.50;;;1.60;99.90;;;;;;4903820;28;20185;-29
2023/12/07 02:05:00;;;;;;;14.03;10.40;;;1.60;99.90;;;;;;4926471;29;20251;-28
2023/12/07 02:07:27;;;;;;;13.97;10.07;;;1.60;99.90;;;;;;4936210;28;20197;-29
2023/12/07 02:09:53;;;;;;;13.93;10.23;;;1.60;99.90;;;;;;4951887;28;20185;-29
2023/12/07 02:12:19;;;;;;;13.37;10.17;;;1.60;99.90;;;;;;4920085;28;20201;-29
2023/12/07 02:14:46;;;;;;;15.60;10.40;;;1.60;99.90;;;;;;4921375;29;20220;-30
2023/12/07 02:17:37;;;;;;;29.93;17.13;;;1.60;99.90;;;;;;4909604;28;20345;-29
2023/12/07 02:20:17;;;;;;;22.73;13.10;;;1.60;99.90;;;;;;4934569;29;20213;-29
2023/12/07 02:22:51;;;;;;;17.53;11.47;;;1.60;99.90;;;;;;4938311;28;20185;-30
2023/12/07 02:25:21;;;;;;;14.43;10.70;;;1.60;99.90;;;;;;4933979;28;20245;-29
2023/12/07 02:27:48;;;;;;;14.27;10.67;;;1.60;99.90;;;;;;4948578;28;20264;-28
2023/12/07 02:30:14;;;;;;;16.57;9.93;;;1.60;99.90;;;;;;4939915;29;20217;-29
2023/12/07 02:32:43;;;;;;;14.27;9.80;;;1.60;99.90;;;;;;4960501;28;20241;-28
2023/12/07 02:35:12;;;;;;;12.63;9.97;;;1.50;99.90;;;;;;4944491;29;20271;-27
2023/12/07 02:37:58;;;;;;;14.20;10.27;;;1.40;99.90;;;;;;4961647;28;20176;-28
2023/12/07 02:40:26;;;;;;;16.23;10.73;;;1.30;99.90;;;;;;4932344;28;20198;-29
2023/12/07 02:42:56;;;;;;;15.43;10.43;;;1.30;99.90;;;;;;4945263;28;20192;-28
2023/12/07 02:45:22;;;;;;;15.27;10.77;;;1.30;99.90;;;;;;4928833;28;20189;-28
2023/12/07 02:47:48;;;;;;;15.57;10.20;;;1.30;99.90;;;;;;4935092;28;20217;-28
2023/12/07 02:50:14;;;;;;;15.23;10.20;;;1.30;99.90;;;;;;4936256;28;20670;-28
2023/12/07 02:52:40;;;;;;;16.03;10.37;;;1.20;99.90;;;;;;4937862;29;20178;-28
2023/12/07 02:55:07;;;;;;;14.60;9.87;;;1.20;99.90;;;;;;4914824;29;20280;-28
2023/12/07 02:57:35;;;;;;;17.00;10.57;;;1.20;99.90;;;;;;4952213;28;20205;-28
2023/12/07 03:00:06;;;;;;;17.30;10.83;;;1.20;99.90;;;;;;4912365;29;20220;-28
2023/12/07 03:02:41;;;;;;;16.50;10.40;;;1.10;99.90;;;;;;4953176;28;20185;-28
2023/12/07 03:05:07;;;;;;;13.13;9.33;;;1.10;99.90;;;;;;4950268;28;20229;-28
2023/12/07 03:07:36;;;;;;;13.47;9.17;;;1.10;99.90;;;;;;4936359;29;20186;-28
2023/12/07 03:10:03;;;;;;;13.67;9.90;;;1.00;99.90;;;;;;4920221;29;20185;-28
2023/12/07 03:12:28;;;;;;;15.40;9.87;;;0.90;99.90;;;;;;4917370;28;20217;-28
2023/12/07 03:14:54;;;;;;;16.20;10.63;;;0.80;99.90;;;;;;4909131;29;20248;-28
2023/12/07 03:17:20;;;;;;;15.53;10.67;;;0.80;99.90;;;;;;4927572;28;20649;-28
2023/12/07 03:19:46;;;;;;;15.07;10.47;;;0.80;99.90;;;;;;4923756;29;20186;-28
2023/12/07 03:22:13;;;;;;;15.10;9.77;;;0.80;99.90;;;;;;4915515;29;20178;-28
2023/12/07 03:24:40;;;;;;;13.87;10.10;;;0.70;99.90;;;;;;4951665;28;20259;-28
2023/12/07 03:27:08;;;;;;;14.17;10.37;;;0.70;99.90;;;;;;4940603;28;20183;-28
2023/12/07 03:29:34;;;;;;;14.23;10.07;;;0.70;99.90;;;;;;4942089;28;20195;-28
2023/12/07 03:32:00;;;;;;;14.97;10.07;;;0.70;99.90;;;;;;4928659;29;20182;-28
2023/12/07 03:34:26;;;;;;;14.23;9.93;;;0.60;99.90;;;;;;4920461;28;20214;-28
2023/12/07 03:36:53;;;;;;;14.83;10.30;;;0.60;99.90;;;;;;4925397;28;20205;-28
2023/12/07 03:39:21;;;;;;;17.17;11.70;;;0.60;99.90;;;;;;4938805;28;20201;-28
2023/12/07 03:41:47;;;;;;;16.63;11.20;;;0.60;99.90;;;;;;4956595;28;20193;-28
2023/12/07 03:44:12;;;;;;;16.00;10.63;;;0.60;99.90;;;;;;4928800;28;20198;-28
2023/12/07 03:46:38;;;;;;;17.27;11.23;;;0.50;99.90;;;;;;4921919;28;20192;-28
2023/12/07 03:49:04;;;;;;;14.90;10.90;;;0.40;99.90;;;;;;4935889;29;20178;-28
2023/12/07 03:51:30;;;;;;;15.23;10.37;;;0.40;99.90;;;;;;4949227;28;20181;-28
2023/12/07 03:53:56;;;;;;;15.50;10.27;;;0.40;99.90;;;;;;4939739;29;20207;-29
2023/12/07 03:56:26;;;;;;;15.10;10.33;;;0.30;99.90;;;;;;4934683;28;20209;-28
2023/12/07 03:58:52;;;;;;;17.27;10.80;;;0.30;99.90;;;;;;4926114;28;20172;-28
2023/12/07 04:01:17;;;;;;;13.17;9.10;;;0.30;99.90;;;;;;4927383;29;20189;-28
2023/12/07 04:03:43;;;;;;;16.43;11.13;;;0.30;99.90;;;;;;4928627;29;20208;-28
2023/12/07 04:06:09;;;;;;;15.33;10.63;;;0.20;99.90;;;;;;4959874;28;20184;-28
2023/12/07 04:08:35;;;;;;;13.80;9.83;;;0.10;99.90;;;;;;4935486;28;20189;-28
2023/12/07 04:11:01;;;;;;;15.70;10.57;;;0.10;99.90;;;;;;4940300;28;20181;-28
2023/12/07 04:13:26;;;;;;;15.17;10.20;;;0.10;99.90;;;;;;4934179;28;20216;-28
2023/12/07 04:15:52;;;;;;;13.80;10.50;;;0.10;99.90;;;;;;4924134;29;20212;-28
2023/12/07 04:18:18;;;;;;;16.13;10.20;;;0.10;99.90;;;;;;4942189;29;20177;-28
2023/12/07 04:20:44;;;;;;;15.23;10.13;;;0.10;99.90;;;;;;4932005;29;20190;-28
2023/12/07 04:23:09;;;;;;;15.37;9.67;;;0.10;99.90;;;;;;4931123;29;20197;-28
2023/12/07 04:25:35;;;;;;;14.33;10.33;;;0.00;99.90;;;;;;4931788;29;20190;-28
2023/12/07 04:28:01;;;;;;;16.37;11.20;;;0.00;99.90;;;;;;4945868;28;20204;-28
2023/12/07 04:30:27;;;;;;;15.93;11.80;;;-0.10;99.90;;;;;;4939166;28;20185;-29
2023/12/07 04:32:53;;;;;;;17.77;11.93;;;-0.10;99.90;;;;;;4912418;29;20182;-29
2023/12/07 04:35:18;;;;;;;15.57;11.17;;;-0.20;99.90;;;;;;4930490;29;20208;-28
2023/12/07 04:37:44;;;;;;;15.50;10.93;;;-0.20;99.90;;;;;;4933994;29;20185;-28
2023/12/07 04:40:11;;;;;;;16.60;10.97;;;-0.20;99.90;;;;;;4954188;28;20178;-28
2023/12/07 04:42:36;;;;;;;19.03;11.07;;;-0.20;99.90;;;;;;4932701;28;20189;-29
2023/12/07 04:45:03;;;;;;;15.17;11.07;;;-0.20;99.90;;;;;;4938213;28;20206;-28
2023/12/07 04:47:29;;;;;;;15.27;10.83;;;-0.20;99.90;;;;;;4917170;28;20222;-28
2023/12/07 04:49:55;;;;;;;15.13;10.73;;;-0.20;99.90;;;;;;4936753;29;20191;-29
2023/12/07 04:52:21;;;;;;;17.83;10.77;;;-0.20;99.90;;;;;;4942580;28;20194;-29
2023/12/07 04:54:47;;;;;;;15.53;10.57;;;-0.20;99.90;;;;;;4937683;28;20233;-28
2023/12/07 04:57:12;;;;;;;14.60;10.37;;;-0.30;99.90;;;;;;4908536;29;20182;-29
2023/12/07 04:59:38;;;;;;;14.20;10.07;;;-0.40;99.90;;;;;;4940485;29;20182;-29
2023/12/07 05:02:04;;;;;;;17.17;11.67;;;-0.40;99.90;;;;;;4941876;28;20648;-28
2023/12/07 05:04:30;;;;;;;17.97;12.03;;;-0.40;99.90;;;;;;4945312;28;20239;-29
2023/12/07 05:06:56;;;;;;;19.00;11.47;;;-0.40;99.90;;;;;;4931966;29;20245;-28
2023/12/07 05:09:21;;;;;;;15.63;10.77;;;-0.40;99.90;;;;;;4956382;28;20196;-28
2023/12/07 05:11:47;;;;;;;17.83;10.97;;;-0.40;99.90;;;;;;4950795;29;20180;-28
2023/12/07 05:14:13;;;;;;;16.10;10.20;;;-0.40;99.90;;;;;;4941232;28;20213;-28
2023/12/07 05:16:40;;;;;;;15.73;10.57;;;-0.50;99.90;;;;;;4931177;28;20349;-28
2023/12/07 05:19:05;;;;;;;14.03;9.70;;;-0.50;99.90;;;;;;4922187;28;20176;-29
2023/12/07 05:21:32;;;;;;;16.97;10.60;;;-0.50;99.90;;;;;;4937875;28;20192;-28
2023/12/07 05:23:57;;;;;;;15.97;10.60;;;-0.50;99.90;;;;;;4949223;28;20204;-28
2023/12/07 05:26:23;;;;;;;15.43;10.70;;;-0.50;99.90;;;;;;4942502;28;20283;-28
2023/12/07 05:28:49;;;;;;;15.93;10.70;;;-0.60;99.90;;;;;;4950549;28;20197;-28
2023/12/07 05:31:17;;;;;;;16.17;10.53;;;-0.70;99.90;;;;;;4925329;29;20234;-28
2023/12/07 05:33:43;;;;;;;14.87;10.33;;;-0.70;99.90;;;;;;4929586;28;20208;-28
2023/12/07 05:36:09;;;;;;;15.83;10.47;;;-0.70;99.90;;;;;;4949155;28;20227;-28
2023/12/07 05:38:35;;;;;;;14.77;10.73;;;-0.80;99.90;;;;;;4931214;28;20247;-28
2023/12/07 05:41:00;;;;;;;18.43;11.97;;;-0.80;99.90;;;;;;4952969;28;20195;-28
2023/12/07 05:43:26;;;;;;;19.40;11.50;;;-0.80;99.90;;;;;;4933647;29;20318;-29
2023/12/07 05:45:52;;;;;;;17.73;11.47;;;-0.80;99.90;;;;;;4931657;29;20213;-28
2023/12/07 05:48:18;;;;;;;18.03;11.50;;;-0.90;99.90;;;;;;4941937;29;20196;-28
2023/12/07 05:50:43;;;;;;;16.97;10.83;;;-0.90;99.90;;;;;;4965054;28;20184;-28
2023/12/07 05:53:12;;;;;;;16.60;11.27;;;-1.00;99.90;;;;;;4940555;29;20191;-28
2023/12/07 05:55:39;;;;;;;16.53;10.50;;;-1.00;99.90;;;;;;4936364;28;20226;-28
2023/12/07 05:58:05;;;;;;;18.37;11.90;;;-1.00;99.90;;;;;;4937583;29;20278;-29
2023/12/07 06:00:31;;;;;;;15.60;10.80;;;-1.00;99.90;;;;;;4945348;28;20227;-29
2023/12/07 06:02:57;;;;;;;15.03;10.93;;;-1.10;99.90;;;;;;4960921;28;20211;-29
2023/12/07 06:05:23;;;;;;;14.93;10.43;;;-1.10;99.90;;;;;;4927438;29;20275;-28
2023/12/07 06:07:49;;;;;;;14.50;9.80;;;-1.20;99.90;;;;;;4928064;28;20203;-28
2023/12/07 06:10:14;;;;;;;17.13;10.20;;;-1.20;99.90;;;;;;4953299;28;20188;-28
2023/12/07 06:12:41;;;;;;;15.03;9.87;;;-1.20;99.90;;;;;;4944871;28;20218;-28
2023/12/07 06:15:07;;;;;;;16.37;10.03;;;-1.30;99.90;;;;;;4918299;29;20227;-28
2023/12/07 06:17:33;;;;;;;15.80;9.93;;;-1.30;99.90;;;;;;4933955;28;20686;-29
2023/12/07 06:20:00;;;;;;;13.07;9.40;;;-1.40;99.90;;;;;;4914015;29;20239;-28
2023/12/07 06:22:27;;;;;;;17.53;10.27;;;-1.40;99.90;;;;;;4954346;29;20195;-28
2023/12/07 06:24:53;;;;;;;13.87;9.97;;;-1.50;99.90;;;;;;4944829;28;20197;-29
2023/12/07 06:27:19;;;;;;;16.93;9.37;;;-1.50;99.90;;;;;;4928065;29;20206;-28
2023/12/07 06:29:45;;;;;;;17.60;11.53;;;-1.50;99.90;;;;;;4911707;29;20247;-28
2023/12/07 06:32:11;;;;;;;19.73;12.73;;;-1.60;99.90;;;;;;4943405;28;20249;-28
2023/12/07 06:34:41;;;;;;;20.30;13.33;;;-1.60;99.90;;;;;;4921877;29;20233;-28
2023/12/07 06:37:10;;;;;;;15.83;10.90;;;-1.60;99.90;;;;;;4929815;29;20665;-28
2023/12/07 06:39:36;;;;;;;16.57;10.77;;;-1.60;99.90;;;;;;4918194;28;20184;-28
2023/12/07 06:42:03;;;;;;;17.87;12.50;;;-1.60;99.90;;;;;;4919538;29;20287;-28
2023/12/07 06:44:28;;;;;;;17.60;13.83;;;-1.60;99.90;;;;;;4913372;29;20204;-28
2023/12/07 06:46:54;;;;;;;22.23;15.47;;;-1.60;99.90;;;;;;4917852;28;20198;-28
2023/12/07 06:49:20;;;;;;;21.93;15.13;;;-1.60;99.90;;;;;;4930731;29;20186;-27
2023/12/07 06:51:46;;;;;;;16.27;10.53;;;-1.60;99.90;;;;;;4917019;28;20191;-28
2023/12/07 06:54:12;;;;;;;16.23;10.50;;;-1.70;99.90;;;;;;4947465;28;20206;-27
2023/12/07 06:56:37;;;;;;;18.07;11.33;;;-1.70;99.90;;;;;;4939397;28;20318;-28
2023/12/07 06:59:03;;;;;;;15.10;9.90;;;-1.70;99.90;;;;;;4935525;29;20265;-28
2023/12/07 07:01:29;;;;;;;15.73;10.23;;;-1.70;99.90;;;;;;4944438;29;20191;-28
2023/12/07 07:03:56;;;;;;;15.27;9.93;;;-1.80;99.90;;;;;;4930763;28;20678;-28
2023/12/07 07:06:22;;;;;;;15.13;9.20;;;-1.80;99.90;;;;;;4941237;29;20184;-28
2023/12/07 07:08:49;;;;;;;16.07;9.87;;;-1.80;99.90;;;;;;4936520;29;20187;-28
2023/12/07 07:11:15;;;;;;;14.23;9.60;;;-1.90;99.90;;;;;;4940565;28;20189;-27
2023/12/07 07:13:41;;;;;;;19.63;11.77;;;-1.90;99.90;;;;;;4922009;29;20241;-28
2023/12/07 07:16:10;;;;;;;16.87;10.67;;;-1.90;99.90;;;;;;4925419;28;20213;-28
2023/12/07 07:18:39;;;;;;;18.00;10.97;;;-1.90;99.90;;;;;;4946969;28;20190;-28
2023/12/07 07:21:06;;;;;;;15.30;10.77;;;-1.90;99.90;;;;;;4967460;28;20193;-27
2023/12/07 07:23:32;;;;;;;15.30;10.63;;;-1.90;99.90;;;;;;4936127;29;20204;-28
2023/12/07 07:25:58;;;;;;;15.07;10.07;;;-1.90;99.90;;;;;;4941781;28;20202;-27
2023/12/07 07:28:24;;;;;;;16.60;10.70;;;-1.90;99.90;;;;;;4921762;29;20280;-28
2023/12/07 07:30:51;;;;;;;18.33;11.60;;;-1.90;99.90;;;;;;4920106;28;20192;-28
2023/12/07 07:33:17;;;;;;;26.83;11.80;;;-2.00;99.90;;;;;;4939782;29;20229;-28
2023/12/07 07:35:43;;;;;;;35.10;13.37;;;-2.10;99.90;;;;;;4920684;28;20210;-28
2023/12/07 07:38:09;;;;;;;27.27;14.73;;;-2.10;99.90;;;;;;4946957;28;20170;-28
2023/12/07 07:40:35;;;;;;;28.23;15.63;;;-2.10;99.90;;;;;;4946875;28;20182;-28
2023/12/07 07:43:02;;;;;;;26.20;12.77;;;-2.10;99.90;;;;;;4931924;29;20184;-28
2023/12/07 07:45:27;;;;;;;28.47;11.40;;;-2.00;99.90;;;;;;4922433;28;20247;-28
2023/12/07 07:47:54;;;;;;;36.27;14.13;;;-1.90;99.90;;;;;;4933423;29;20195;-27
2023/12/07 07:50:20;;;;;;;40.77;13.83;;;-1.90;99.90;;;;;;4938124;29;20193;-28
2023/12/07 07:52:45;;;;;;;34.50;12.30;;;-1.90;99.90;;;;;;4919235;29;20198;-28
2023/12/07 07:55:12;;;;;;;19.67;11.77;;;-1.90;99.90;;;;;;4935638;29;20285;-28
2023/12/07 07:57:38;;;;;;;32.30;11.80;;;-1.90;99.90;;;;;;4927151;28;20206;-30
2023/12/07 08:00:08;;;;;;;30.90;14.10;;;-1.90;99.90;;;;;;4935605;29;20180;-28
2023/12/07 08:02:36;;;;;;;24.30;13.37;;;-1.90;99.90;;;;;;4927215;28;20185;-28
2023/12/07 08:05:02;;;;;;;21.60;11.67;;;-1.80;99.90;;;;;;4940119;28;20230;-28
2023/12/07 08:07:28;;;;;;;19.60;11.10;;;-1.80;99.90;;;;;;4932301;29;20323;-28
2023/12/07 08:09:53;;;;;;;34.40;13.40;;;-1.70;99.90;;;;;;4931855;28;20273;-28
2023/12/07 08:12:22;;;;;;;19.63;11.53;;;-1.70;99.90;;;;;;4953314;28;20190;-28
2023/12/07 08:14:49;;;;;;;18.27;12.00;;;-1.70;99.90;;;;;;4917647;28;20241;-28
2023/12/07 08:17:14;;;;;;;18.13;11.30;;;-1.60;99.90;;;;;;4941471;28;20190;-28
2023/12/07 08:19:42;;;;;;;19.47;11.80;;;-1.50;99.90;;;;;;4946763;28;20190;-28
2023/12/07 08:22:08;;;;;;;15.23;10.27;;;-1.40;99.90;;;;;;4913692;29;20190;-27
2023/12/07 08:24:35;;;;;;;26.23;10.77;;;-1.40;99.90;;;;;;4930602;29;20730;-28
2023/12/07 08:27:04;;;;;;;18.73;10.27;;;-1.40;99.90;;;;;;4939011;28;20266;-53
2023/12/07 08:29:30;;;;;;;20.70;10.73;;;-1.30;99.90;;;;;;4941304;29;20197;-29
2023/12/07 08:31:56;;;;;;;22.93;9.83;;;-1.20;99.90;;;;;;4946503;28;20213;-29
2023/12/07 08:34:24;;;;;;;18.47;9.73;;;-1.30;99.90;;;;;;4946854;28;20201;-29
2023/12/07 08:36:50;;;;;;;21.33;11.77;;;-1.40;99.90;;;;;;4939116;28;20219;-29
2023/12/07 08:39:15;;;;;;;18.10;13.90;;;-1.30;99.90;;;;;;4943022;29;20188;-29
2023/12/07 08:41:42;;;;;;;21.20;13.37;;;-1.30;99.90;;;;;;4915210;28;20220;-29
2023/12/07 08:44:08;;;;;;;20.87;12.60;;;-1.30;99.90;;;;;;4934844;29;20310;-29
2023/12/07 08:46:34;;;;;;;17.17;10.90;;;-1.30;99.90;;;;;;4920602;29;20228;-29
2023/12/07 08:48:59;;;;;;;15.37;10.93;;;-1.20;99.90;;;;;;4938122;28;20196;-29
2023/12/07 08:51:25;;;;;;;17.93;11.40;;;-1.10;99.90;;;;;;4930297;29;20244;-29
2023/12/07 08:53:51;;;;;;;15.97;10.17;;;-1.00;99.90;;;;;;4967374;28;20214;-29
2023/12/07 08:56:18;;;;;;;15.10;9.83;;;-0.90;99.90;;;;;;4952605;28;20218;-29
2023/12/07 08:58:44;;;;;;;15.50;10.60;;;-0.80;99.90;;;;;;4948889;28;20243;-29
2023/12/07 09:01:11;;;;;;;16.50;10.60;;;-0.70;99.90;;;;;;4929311;29;20180;-29
2023/12/07 09:03:37;;;;;;;16.53;11.27;;;-0.60;99.90;;;;;;4937296;28;20211;-29
2023/12/07 09:06:05;;;;;;;16.30;11.23;;;-0.50;99.90;;;;;;4939551;28;20200;-29
2023/12/07 09:08:30;;;;;;;15.87;10.30;;;-0.40;99.90;;;;;;4940382;29;20236;-29
2023/12/07 09:10:56;;;;;;;18.10;12.53;;;-0.30;99.90;;;;;;4940125;28;20199;-29
2023/12/07 09:13:22;;;;;;;17.77;11.67;;;-0.30;99.90;;;;;;4936888;29;20272;-29
2023/12/07 09:15:48;;;;;;;15.20;10.70;;;-0.20;99.90;;;;;;4921873;28;20220;-29
2023/12/07 09:18:14;;;;;;;24.93;15.23;;;-0.20;99.90;;;;;;4936897;29;20190;-29
2023/12/07 09:20:46;;;;;;;20.10;12.67;;;-0.20;99.90;;;;;;4945972;29;20191;-29
2023/12/07 09:23:12;;;;;;;16.13;10.77;;;-0.20;99.90;;;;;;4943856;28;20190;-29
2023/12/07 09:25:40;;;;;;;18.47;11.13;;;-0.20;99.90;;;;;;4925363;29;20192;-29
2023/12/07 09:28:06;;;;;;;16.70;11.60;;;-0.30;99.90;;;;;;4937754;28;20188;-29
2023/12/07 09:30:33;;;;;;;22.33;12.83;;;-0.30;99.90;;;;;;4937545;29;20193;-29
2023/12/07 09:33:00;;;;;;;22.73;14.63;;;-0.20;99.90;;;;;;4913050;28;20197;-29
2023/12/07 09:35:25;;;;;;;29.03;15.27;;;-0.30;99.90;;;;;;4921267;29;20208;-29
2023/12/07 09:37:51;;;;;;;35.20;14.53;;;-0.40;99.90;;;;;;4921606;28;20248;-29
2023/12/07 09:40:19;;;;;;;30.17;14.17;;;-0.40;99.90;;;;;;4921672;29;20200;-29
2023/12/07 09:42:46;;;;;;;27.83;13.57;;;-0.40;99.90;;;;;;4929579;28;20196;-28
2023/12/07 09:45:14;;;;;;;18.93;12.30;;;-0.40;99.90;;;;;;4945486;28;20208;-29
2023/12/07 09:47:41;;;;;;;26.43;13.60;;;-0.40;99.90;;;;;;4937203;29;20185;-29
2023/12/07 09:50:09;;;;;;;17.00;11.90;;;-0.30;99.90;;;;;;4921349;28;20185;-29
2023/12/07 09:52:35;;;;;;;19.97;12.80;;;-0.30;99.90;;;;;;4953482;28;20184;-29
2023/12/07 09:55:05;;;;;;;33.37;13.60;;;-0.20;99.90;;;;;;4920807;28;20211;-29
2023/12/07 09:57:33;;;;;;;21.03;12.30;;;-0.30;99.90;;;;;;4938438;29;20275;-29
2023/12/07 09:59:59;;;;;;;28.90;15.77;;;-0.20;99.90;;;;;;4922404;28;20196;-29
2023/12/07 10:02:26;;;;;;;24.97;15.07;;;-0.20;99.90;;;;;;4929142;29;20185;-29
2023/12/07 10:05:07;;;;;;;24.27;14.63;;;-0.10;99.90;;;;;;4957725;28;20256;-29
2023/12/07 10:07:39;;;;;;;24.27;14.13;;;0.00;99.90;;;;;;4954223;28;20215;-29
2023/12/07 10:10:05;;;;;;;26.13;15.47;;;0.10;99.90;;;;;;4956629;28;20212;-29
2023/12/07 10:12:34;;;;;;;26.90;14.80;;;0.10;99.90;;;;;;4929002;29;20193;-29
2023/12/07 10:15:11;;;;;;;24.27;15.40;;;0.20;99.90;;;;;;4935226;28;20209;-29
2023/12/07 10:17:47;;;;;;;31.73;20.17;;;0.20;99.90;;;;;;4952078;28;20185;-29
2023/12/07 10:20:17;;;;;;;32.80;20.90;;;0.30;99.90;;;;;;4926568;29;20255;-29
2023/12/07 10:22:45;;;;;;;29.60;18.37;;;0.40;99.90;;;;;;4928355;29;20185;-29
2023/12/07 10:25:13;;;;;;;24.93;16.87;;;0.60;99.90;;;;;;4912225;28;20225;-29
2023/12/07 10:27:41;;;;;;;26.90;16.13;;;0.70;99.90;;;;;;4925572;29;20338;-29
2023/12/07 10:30:10;;;;;;;24.10;16.13;;;0.90;99.90;;;;;;4912908;28;20287;-29
2023/12/07 10:32:38;;;;;;;24.03;15.87;;;1.00;99.90;;;;;;4942685;28;20215;-28
2023/12/07 10:35:07;;;;;;;22.87;14.83;;;1.20;99.90;;;;;;4908491;28;20682;-29
2023/12/07 10:37:33;;;;;;;22.70;15.10;;;1.30;99.90;;;;;;4915289;29;20193;-29
2023/12/07 10:40:00;;;;;;;23.03;14.33;;;1.40;99.90;;;;;;4933851;28;20186;-29
2023/12/07 10:42:29;;;;;;;21.20;14.40;;;1.50;99.90;;;;;;4908246;29;20182;-29
2023/12/07 10:44:57;;;;;;;17.63;12.30;;;1.60;99.90;;;;;;4910812;28;20205;-29
2023/12/07 10:47:24;;;;;;;18.67;12.43;;;1.70;99.90;;;;;;4924156;29;20178;-29
2023/12/07 10:49:54;;;;;;;16.37;11.87;;;1.80;99.90;;;;;;4915655;29;20261;-30
2023/12/07 10:52:24;;;;;;;18.37;12.53;;;1.90;99.90;;;;;;4927072;29;20186;-29
2023/12/07 10:55:02;;;;;;;16.97;11.43;;;2.00;99.90;;;;;;4930647;29;20202;-29
2023/12/07 10:57:32;;;;;;;15.53;10.77;;;2.10;99.90;;;;;;4927692;29;20186;-28
2023/12/07 11:00:00;;;;;;;14.50;10.73;;;2.20;99.90;;;;;;4930392;28;20183;-29
2023/12/07 11:02:28;;;;;;;16.70;10.90;;;2.20;99.90;;;;;;4909149;29;20197;-29
2023/12/07 11:04:57;;;;;;;17.30;10.97;;;2.40;99.90;;;;;;4927576;28;20214;-29
2023/12/07 11:07:27;;;;;;;15.47;10.80;;;2.40;99.90;;;;;;4917536;29;20201;-29
2023/12/07 11:10:14;;;;;;;15.37;10.33;;;2.50;99.90;;;;;;4924715;28;20173;-29
2023/12/07 11:12:48;;;;;;;12.67;9.03;;;2.60;99.90;;;;;;4910096;29;20181;-29
2023/12/07 11:15:16;;;;;;;12.90;9.27;;;2.70;99.90;;;;;;4927650;28;20292;-29
2023/12/07 11:17:53;;;;;;;14.47;9.70;;;2.80;99.90;;;;;;4911462;29;20178;-29
2023/12/07 11:20:21;;;;;;;14.27;9.17;;;2.80;99.90;;;;;;4925899;29;20267;-28
2023/12/07 11:22:48;;;;;;;12.70;8.27;;;2.90;99.90;;;;;;4908235;29;20212;-29
2023/12/07 11:25:15;;;;;;;10.10;7.57;;;3.00;99.90;;;;;;4924451;28;20256;-29
2023/12/07 11:27:47;;;;;;;8.30;6.77;;;3.00;99.90;;;;;;4905911;29;20213;-29
2023/12/07 11:30:14;;;;;;;9.20;6.70;;;3.10;99.90;;;;;;4905983;28;20272;-29
2023/12/07 11:32:41;;;;;;;8.17;6.53;;;3.10;99.90;;;;;;4923949;29;20201;-29
2023/12/07 11:35:12;;;;;;;10.53;6.57;;;3.20;99.90;;;;;;4908858;28;20205;-29
2023/12/07 11:38:07;;;;;;;9.33;6.87;;;3.20;99.90;;;;;;4907752;29;20186;-29
2023/12/07 11:40:43;;;;;;;9.77;6.80;;;3.30;99.90;;;;;;4920895;29;20182;-29
2023/12/07 11:43:40;;;;;;;11.27;8.23;;;3.50;99.90;;;;;;4908144;28;20184;-29
2023/12/07 11:46:10;;;;;;;8.97;6.80;;;3.60;99.90;;;;;;4921049;29;20192;-29
2023/12/07 11:48:36;;;;;;;11.67;8.83;;;3.60;99.90;;;;;;4957912;28;20213;-29
2023/12/07 11:51:08;;;;;;;12.73;8.87;;;3.70;99.90;;;;;;4930887;28;20197;-29
2023/12/07 11:53:38;;;;;;;15.13;10.10;;;3.70;99.90;;;;;;4936047;29;20309;-29
2023/12/07 11:56:06;;;;;;;11.90;8.57;;;3.70;99.90;;;;;;4919348;28;20217;-29
2023/12/07 11:58:33;;;;;;;12.50;9.23;;;3.70;99.90;;;;;;4933841;29;20185;-29
2023/12/07 12:01:01;;;;;;;12.40;9.10;;;3.70;99.90;;;;;;4910399;28;20186;-29
2023/12/07 12:03:34;;;;;;;13.23;9.70;;;3.70;99.90;;;;;;4929784;28;20217;-29
2023/12/07 12:06:03;;;;;;;12.53;9.07;;;3.70;99.90;;;;;;4933654;28;20185;-29
2023/12/07 12:08:30;;;;;;;10.53;8.40;;;3.80;99.90;;;;;;4924346;29;20273;-30
2023/12/07 12:10:59;;;;;;;12.07;8.63;;;3.90;99.90;;;;;;4916730;29;20193;-29
2023/12/07 12:13:34;;;;;;;14.37;9.77;;;4.00;99.90;;;;;;4912667;29;20245;-29
2023/12/07 12:16:00;;;;;;;11.90;8.40;;;4.10;99.90;;;;;;4925882;28;20208;-29
2023/12/07 12:18:27;;;;;;;10.30;7.90;;;4.20;99.90;;;;;;4932620;29;20181;-29
2023/12/07 12:20:54;;;;;;;9.67;7.23;;;4.20;99.90;;;;;;4914483;29;20267;-29
2023/12/07 12:23:20;;;;;;;10.47;7.87;;;4.40;99.90;;;;;;4945133;28;20214;-29
2023/12/07 12:25:48;;;;;;;8.80;7.30;;;4.50;99.90;;;;;;4905927;29;20185;-29
2023/12/07 12:28:22;;;;;;;8.97;7.23;;;4.60;99.90;;;;;;4905603;28;20188;-29
2023/12/07 12:30:48;;;;;;;10.73;7.53;;;4.60;99.90;;;;;;4945549;28;20190;-29
2023/12/07 12:33:14;;;;;;;10.80;8.33;;;4.30;99.90;;;;;;4933288;28;20217;-29
2023/12/07 12:35:41;;;;;;;12.43;8.77;;;4.30;99.90;;;;;;4911610;29;20217;-29